createdAt,value
2023-04-20T00:00:35.716Z,1006.41
2023-04-20T00:01:35.724Z,1006.40
2023-04-20T00:02:35.801Z,1006.39
2023-04-20T00:03:35.859Z,1006.38
2023-04-20T00:04:35.695Z,1006.38
2023-04-20T00:05:35.707Z,1006.38
2023-04-20T00:06:35.666Z,1006.36
2023-04-20T00:07:35.660Z,1006.35
2023-04-20T00:08:35.636Z,1006.32
2023-04-20T00:09:35.603Z,1006.29
2023-04-20T00:10:35.614Z,1006.28
2023-04-20T00:11:35.589Z,1006.26
2023-04-20T00:12:35.599Z,1006.24
2023-04-20T00:13:35.581Z,1006.22
2023-04-20T00:14:35.568Z,1006.21
2023-04-20T00:15:35.538Z,1006.19
2023-04-20T00:16:35.571Z,1006.18
2023-04-20T00:17:35.536Z,1006.17
2023-04-20T00:18:35.522Z,1006.13
2023-04-20T00:19:35.540Z,1006.13
2023-04-20T00:20:35.515Z,1006.12
2023-04-20T00:21:35.484Z,1006.12
2023-04-20T00:22:35.497Z,1006.11
2023-04-20T00:23:35.456Z,1006.08
2023-04-20T00:24:35.467Z,1006.06
2023-04-20T00:25:35.477Z,1006.06
2023-04-20T00:26:35.466Z,1006.05
2023-04-20T00:27:35.422Z,1006.03
2023-04-20T00:28:35.433Z,1006.01
2023-04-20T00:29:35.410Z,1006.01
2023-04-20T00:30:35.462Z,1006.00
2023-04-20T00:31:35.371Z,1006.00
2023-04-20T00:32:35.434Z,1006.01
2023-04-20T00:33:35.350Z,1006.01
2023-04-20T00:34:35.370Z,1005.99
2023-04-20T00:35:35.328Z,1005.98
2023-04-20T00:36:35.365Z,1005.96
2023-04-20T00:37:35.303Z,1005.95
2023-04-20T00:38:35.317Z,1005.94
2023-04-20T00:39:35.310Z,1005.92
2023-04-20T00:40:35.282Z,1005.91
2023-04-20T00:41:35.296Z,1005.90
2023-04-20T00:42:35.256Z,1005.89
2023-04-20T00:43:35.275Z,1005.88
2023-04-20T00:44:35.256Z,1005.88
2023-04-20T00:45:35.276Z,1005.87
2023-04-20T00:46:35.256Z,1005.85
2023-04-20T00:47:35.280Z,1005.85
2023-04-20T00:48:35.192Z,1005.84
2023-04-20T00:49:35.191Z,1005.84
2023-04-20T00:50:35.176Z,1005.84
2023-04-20T00:51:35.214Z,1005.83
2023-04-20T00:52:35.146Z,1005.84
2023-04-20T00:53:35.151Z,1005.84
2023-04-20T00:54:35.124Z,1005.84
2023-04-20T00:55:35.130Z,1005.82
2023-04-20T00:56:35.101Z,1005.80
2023-04-20T00:57:35.134Z,1005.80
2023-04-20T00:58:35.102Z,1005.78
2023-04-20T00:59:35.080Z,1005.75
2023-04-20T01:00:35.070Z,1005.73
2023-04-20T01:01:35.088Z,1005.71
2023-04-20T01:02:35.193Z,1005.69
2023-04-20T01:03:35.334Z,1005.67
2023-04-20T01:04:35.200Z,1005.64
2023-04-20T01:05:35.034Z,1005.62
2023-04-20T01:06:35.015Z,1005.58
2023-04-20T01:07:35.013Z,1005.57
2023-04-20T01:08:34.980Z,1005.55
2023-04-20T01:09:34.997Z,1005.52
2023-04-20T01:10:34.957Z,1005.48
2023-04-20T01:11:34.967Z,1005.47
2023-04-20T01:12:34.948Z,1005.46
2023-04-20T01:13:34.948Z,1005.45
2023-04-20T01:14:34.925Z,1005.44
2023-04-20T01:15:34.940Z,1005.44
2023-04-20T01:16:35.112Z,1005.42
2023-04-20T01:17:35.017Z,1005.41
2023-04-20T01:18:34.875Z,1005.39
2023-04-20T01:19:34.880Z,1005.38
2023-04-20T01:20:34.852Z,1005.36
2023-04-20T01:21:34.895Z,1005.35
2023-04-20T01:22:34.838Z,1005.33
2023-04-20T01:23:34.833Z,1005.32
2023-04-20T01:24:34.818Z,1005.30
2023-04-20T01:25:34.811Z,1005.30
2023-04-20T01:26:34.803Z,1005.29
2023-04-20T01:27:34.803Z,1005.29
2023-04-20T01:28:34.764Z,1005.28
2023-04-20T01:29:34.769Z,1005.26
2023-04-20T06:00:56.039Z,1004.61
2023-04-20T06:01:57.007Z,1004.61
2023-04-20T06:02:57.096Z,1004.61
2023-04-20T06:03:57.187Z,1004.61
2023-04-20T06:04:57.264Z,1004.60
2023-04-20T06:05:56.936Z,1004.60
2023-04-20T06:06:56.945Z,1004.62
2023-04-20T06:07:56.909Z,1004.61
2023-04-20T06:08:56.933Z,1004.61
2023-04-20T06:09:56.885Z,1004.60
2023-04-20T06:10:56.921Z,1004.60
2023-04-20T06:11:56.875Z,1004.59
2023-04-20T06:12:56.880Z,1004.59
2023-04-20T06:13:56.844Z,1004.57
2023-04-20T06:14:56.855Z,1004.59
2023-04-20T06:15:56.833Z,1004.56
2023-04-20T06:16:56.859Z,1004.57
2023-04-20T06:17:56.954Z,1004.57
2023-04-20T06:18:56.833Z,1004.60
2023-04-20T06:19:56.816Z,1004.58
2023-04-20T06:20:56.863Z,1004.59
2023-04-20T06:21:58.339Z,1004.61
2023-04-20T06:22:56.785Z,1004.63
2023-04-20T06:23:56.758Z,1004.62
2023-04-20T06:24:56.761Z,1004.64
2023-04-20T06:25:56.720Z,1004.60
2023-04-20T06:26:56.723Z,1004.60
2023-04-20T06:27:56.718Z,1004.61
2023-04-20T06:28:56.720Z,1004.63
2023-04-20T06:29:56.696Z,1004.63
2023-04-20T06:30:56.721Z,1004.63
2023-04-20T06:31:56.676Z,1004.61
2023-04-20T06:32:56.706Z,1004.62
2023-04-20T06:33:56.629Z,1004.61
2023-04-20T06:34:56.645Z,1004.60
2023-04-20T06:35:56.644Z,1004.59
2023-04-20T06:36:56.609Z,1004.58
2023-04-20T06:37:56.655Z,1004.61
2023-04-20T06:38:56.620Z,1004.60
2023-04-20T06:39:56.585Z,1004.59
2023-04-20T06:40:56.559Z,1004.60
2023-04-20T06:41:56.561Z,1004.59
2023-04-20T06:42:56.539Z,1004.59
2023-04-20T06:43:56.599Z,1004.59
2023-04-20T06:44:56.523Z,1004.60
2023-04-20T06:45:56.537Z,1004.58
2023-04-20T06:46:56.619Z,1004.56
2023-04-20T06:47:56.570Z,1004.56
2023-04-20T06:48:56.474Z,1004.54
2023-04-20T06:49:56.484Z,1004.53
2023-04-20T06:50:56.475Z,1004.51
2023-04-20T06:51:56.446Z,1004.50
2023-04-20T06:52:56.447Z,1004.48
2023-04-20T06:53:56.522Z,1004.50
2023-04-20T06:54:56.417Z,1004.48
2023-04-20T06:55:56.425Z,1004.47
2023-04-20T06:56:56.385Z,1004.45
2023-04-20T06:57:56.393Z,1004.46
2023-04-20T06:58:56.396Z,1004.42
2023-04-20T06:59:56.382Z,1004.43
2023-04-20T07:00:56.354Z,1004.41
2023-04-20T07:01:56.506Z,1004.42
2023-04-20T07:02:56.526Z,1004.40
2023-04-20T07:03:56.564Z,1004.37
2023-04-20T07:04:56.414Z,1004.39
2023-04-20T07:05:56.510Z,1004.37
2023-04-20T07:06:56.301Z,1004.35
2023-04-20T07:07:56.291Z,1004.34
2023-04-20T07:08:56.274Z,1004.32
2023-04-20T07:09:56.261Z,1004.33
2023-04-20T07:10:56.276Z,1004.32
2023-04-20T07:11:56.284Z,1004.31
2023-04-20T07:12:56.204Z,1004.33
2023-04-20T07:13:56.208Z,1004.35
2023-04-20T07:14:56.238Z,1004.37
2023-04-20T07:15:56.224Z,1004.41
2023-04-20T07:16:56.268Z,1004.44
2023-04-20T07:17:56.211Z,1004.45
2023-04-20T07:18:56.178Z,1004.46
2023-04-20T07:19:56.161Z,1004.46
2023-04-20T07:20:56.156Z,1004.44
2023-04-20T07:21:56.129Z,1004.44
2023-04-20T07:22:56.136Z,1004.45
2023-04-20T07:23:56.104Z,1004.46
2023-04-20T07:24:56.102Z,1004.47
2023-04-20T07:25:56.084Z,1004.49
2023-04-20T07:26:56.054Z,1004.50
2023-04-20T07:27:56.093Z,1004.50
2023-04-20T07:28:56.108Z,1004.47
2023-04-20T07:29:56.048Z,1004.43
2023-04-20T07:30:56.006Z,1004.41
2023-04-20T07:31:56.034Z,1004.42
2023-04-20T07:32:56.079Z,1004.45
2023-04-20T07:33:56.012Z,1004.45
2023-04-20T07:34:56.019Z,1004.46
2023-04-20T07:35:56.011Z,1004.46
2023-04-20T07:36:55.951Z,1004.46
2023-04-20T07:37:55.977Z,1004.47
2023-04-20T07:38:55.968Z,1004.47
2023-04-20T07:39:55.948Z,1004.47
2023-04-20T07:40:55.932Z,1004.46
2023-04-20T07:41:55.915Z,1004.45
2023-04-20T07:42:55.934Z,1004.43
2023-04-20T07:43:55.913Z,1004.46
2023-04-20T07:44:55.863Z,1004.46
2023-04-20T07:45:56.013Z,1004.49
2023-04-20T07:46:55.890Z,1004.49
2023-04-20T07:47:55.934Z,1004.52
2023-04-20T07:48:55.839Z,1004.51
2023-04-20T07:49:55.827Z,1004.52
2023-04-20T07:50:55.845Z,1004.53
2023-04-20T07:52:03.366Z,1004.55
2023-04-20T07:52:55.808Z,1004.57
2023-04-20T07:53:55.800Z,1004.56
2023-04-20T07:55:06.755Z,1004.57
2023-04-20T07:55:55.767Z,1004.54
2023-04-20T07:57:16.758Z,1004.55
2023-04-20T07:58:16.760Z,1004.57
2023-04-20T07:58:55.736Z,1004.55
2023-04-20T08:00:16.707Z,1004.56
2023-04-20T08:00:55.772Z,1004.55
2023-04-20T08:01:56.366Z,1004.54
2023-04-20T08:02:55.869Z,1004.53
2023-04-20T08:03:56.218Z,1004.52
2023-04-20T08:04:55.800Z,1004.52
2023-04-20T08:05:55.720Z,1004.49
2023-04-20T08:06:55.669Z,1004.49
2023-04-20T08:07:55.614Z,1004.51
2023-04-20T08:08:55.655Z,1004.51
2023-04-20T08:09:55.626Z,1004.50
2023-04-20T08:10:55.653Z,1004.46
2023-04-20T08:11:55.585Z,1004.43
2023-04-20T08:12:55.586Z,1004.44
2023-04-20T08:13:57.256Z,1004.44
2023-04-20T08:14:55.562Z,1004.42
2023-04-20T08:15:55.603Z,1004.41
2023-04-20T08:16:55.550Z,1004.42
2023-04-20T08:17:55.599Z,1004.43
2023-04-20T08:18:55.519Z,1004.42
2023-04-20T08:19:55.478Z,1004.42
2023-04-20T08:20:55.506Z,1004.42
2023-04-20T08:21:55.603Z,1004.43
2023-04-20T08:22:55.501Z,1004.42
2023-04-20T08:23:55.449Z,1004.42
2023-04-20T08:24:55.489Z,1004.40
2023-04-20T08:25:55.422Z,1004.38
2023-04-20T08:26:55.443Z,1004.40
2023-04-20T08:27:55.464Z,1004.40
2023-04-20T08:28:55.402Z,1004.35
2023-04-20T08:29:55.401Z,1004.35
2023-04-20T08:30:55.402Z,1004.35
2023-04-20T08:31:55.432Z,1004.32
2023-04-20T08:32:55.449Z,1004.30
2023-04-20T08:33:55.392Z,1004.29
2023-04-20T08:34:55.330Z,1004.30
2023-04-20T08:35:55.323Z,1004.26
2023-04-20T08:36:55.319Z,1004.23
2023-04-20T08:37:55.330Z,1004.21
2023-04-20T08:38:55.321Z,1004.23
2023-04-20T08:39:55.298Z,1004.24
2023-04-20T08:40:55.273Z,1004.22
2023-04-20T08:41:55.269Z,1004.22
2023-04-20T08:42:55.289Z,1004.21
2023-04-20T08:43:55.248Z,1004.20
2023-04-20T08:44:55.240Z,1004.16
2023-04-20T08:45:55.278Z,1004.16
2023-04-20T08:46:55.253Z,1004.16
2023-04-20T08:47:55.243Z,1004.15
2023-04-20T08:48:55.188Z,1004.17
2023-04-20T08:49:55.176Z,1004.14
2023-04-20T08:50:55.181Z,1004.16
2023-04-20T08:51:55.303Z,1004.13
2023-04-20T08:52:55.149Z,1004.13
2023-04-20T08:53:55.134Z,1004.13
2023-04-20T08:54:57.187Z,1004.13
2023-04-20T08:55:55.092Z,1004.11
2023-04-20T08:56:55.123Z,1004.11
2023-04-20T08:57:55.093Z,1004.10
2023-04-20T08:58:55.086Z,1004.09
2023-04-20T08:59:55.082Z,1004.09
2023-04-20T09:00:55.080Z,1004.08
2023-04-20T09:01:55.065Z,1004.12
2023-04-20T09:02:55.175Z,1004.09
2023-04-20T09:03:55.104Z,1004.10
2023-04-20T09:04:55.079Z,1004.10
2023-04-20T09:05:54.991Z,1004.08
2023-04-20T09:06:55.007Z,1004.07
2023-04-20T09:07:55.002Z,1004.06
2023-04-20T09:08:55.013Z,1004.09
2023-04-20T09:09:54.968Z,1004.08
2023-04-20T09:10:54.962Z,1004.01
2023-04-20T09:11:54.928Z,1004.05
2023-04-20T09:12:54.938Z,1003.99
2023-04-20T09:13:54.898Z,1004.01
2023-04-20T09:14:54.902Z,1004.05
2023-04-20T09:15:54.962Z,1004.01
2023-04-20T09:16:54.927Z,1004.01
2023-04-20T09:17:54.930Z,1004.00
2023-04-20T09:18:54.876Z,1003.99
2023-04-20T09:19:54.842Z,1003.98
2023-04-20T09:20:54.841Z,1003.97
2023-04-20T09:21:54.837Z,1003.93
2023-04-20T09:22:54.820Z,1003.95
2023-04-20T09:23:54.793Z,1003.91
2023-04-20T09:24:54.786Z,1003.88
2023-04-20T09:25:54.775Z,1003.88
2023-04-20T09:26:54.788Z,1003.88
2023-04-20T09:27:54.797Z,1003.85
2023-04-20T09:28:54.771Z,1003.86
2023-04-20T09:29:54.737Z,1003.85
2023-04-20T09:30:54.734Z,1003.80
2023-04-20T09:31:54.740Z,1003.83
2023-04-20T09:32:54.792Z,1003.83
2023-04-20T09:33:54.694Z,1003.82
2023-04-20T09:34:54.681Z,1003.77
2023-04-20T09:35:54.669Z,1003.77
2023-04-20T09:36:54.717Z,1003.75
2023-04-20T09:37:54.665Z,1003.69
2023-04-20T09:38:54.634Z,1003.66
2023-04-20T09:39:54.617Z,1003.68
2023-04-20T09:40:54.627Z,1003.63
2023-04-20T09:41:54.604Z,1003.61
2023-04-20T09:42:54.631Z,1003.54
2023-04-20T09:43:54.620Z,1003.53
2023-04-20T09:44:54.577Z,1003.51
2023-04-20T09:45:54.604Z,1003.54
2023-04-20T09:46:54.560Z,1003.57
2023-04-20T09:47:54.561Z,1003.55
2023-04-20T09:48:54.529Z,1003.60
2023-04-20T09:49:54.530Z,1003.54
2023-04-20T09:50:54.525Z,1003.54
2023-04-20T09:51:54.519Z,1003.52
2023-04-20T09:52:54.483Z,1003.48
2023-04-20T09:53:54.517Z,1003.45
2023-04-20T09:54:54.501Z,1003.40
2023-04-20T09:55:54.475Z,1003.44
2023-04-20T09:56:54.450Z,1003.36
2023-04-20T09:57:54.431Z,1003.39
2023-04-20T09:58:54.462Z,1003.40
2023-04-20T09:59:54.405Z,1003.38
2023-04-20T10:00:54.441Z,1003.37
2023-04-20T10:01:54.405Z,1003.35
2023-04-20T10:02:54.452Z,1003.34
2023-04-20T10:03:54.583Z,1003.33
2023-04-20T10:04:54.401Z,1003.33
2023-04-20T10:05:54.329Z,1003.30
2023-04-20T10:06:54.335Z,1003.27
2023-04-20T10:07:54.363Z,1003.34
2023-04-20T10:08:54.303Z,1003.32
2023-04-20T10:09:54.296Z,1003.27
2023-04-20T10:10:54.325Z,1003.28
2023-04-20T10:11:55.662Z,1003.25
2023-04-20T10:12:54.306Z,1003.26
2023-04-20T10:13:54.271Z,1003.25
2023-04-20T10:14:54.240Z,1003.21
2023-04-20T10:15:54.222Z,1003.19
2023-04-20T10:16:54.324Z,1003.15
2023-04-20T10:17:54.345Z,1003.13
2023-04-20T10:18:54.340Z,1003.13
2023-04-20T10:19:54.216Z,1003.12
2023-04-20T10:20:54.172Z,1003.11
2023-04-20T10:21:54.161Z,1003.13
2023-04-20T10:22:54.183Z,1003.14
2023-04-20T10:23:54.143Z,1003.13
2023-04-20T10:24:54.139Z,1003.09
2023-04-20T10:25:54.187Z,1003.12
2023-04-20T10:26:54.129Z,1003.11
2023-04-20T10:27:54.114Z,1003.07
2023-04-20T10:28:54.094Z,1003.11
2023-04-20T10:29:54.111Z,1003.11
2023-04-20T10:30:54.226Z,1003.05
2023-04-20T10:31:54.076Z,1003.02
2023-04-20T10:32:54.087Z,1003.06
2023-04-20T10:33:54.034Z,1003.03
2023-04-20T10:34:54.034Z,1003.01
2023-04-20T10:35:53.999Z,1003.00
2023-04-20T10:36:54.010Z,1003.02
2023-04-20T10:37:54.017Z,1002.97
2023-04-20T10:38:53.988Z,1002.97
2023-04-20T10:39:54.015Z,1002.98
2023-04-20T10:40:53.994Z,1002.96
2023-04-20T10:41:53.935Z,1002.98
2023-04-20T10:42:53.987Z,1003.00
2023-04-20T10:43:53.927Z,1002.95
2023-04-20T10:44:53.933Z,1002.93
2023-04-20T10:45:53.940Z,1002.94
2023-04-20T10:46:54.086Z,1002.90
2023-04-20T10:47:53.955Z,1002.91
2023-04-20T10:48:53.892Z,1002.90
2023-04-20T10:49:53.874Z,1002.86
2023-04-20T10:50:53.860Z,1002.84
2023-04-20T10:51:54.780Z,1002.83
2023-04-20T10:52:54.019Z,1002.83
2023-04-20T10:53:53.891Z,1002.82
2023-04-20T10:54:53.810Z,1002.81
2023-04-20T10:55:53.814Z,1002.77
2023-04-20T10:56:53.808Z,1002.78
2023-04-20T10:57:53.841Z,1002.75
2023-04-20T10:58:53.781Z,1002.77
2023-04-20T10:59:53.763Z,1002.77
2023-04-20T11:00:53.756Z,1002.78
2023-04-20T11:01:53.848Z,1002.76
2023-04-20T11:02:53.896Z,1002.76
2023-04-20T11:03:53.999Z,1002.71
2023-04-20T11:04:53.934Z,1002.75
2023-04-20T11:05:53.934Z,1002.80
2023-04-20T11:06:53.703Z,1002.74
2023-04-20T11:07:53.674Z,1002.70
2023-04-20T11:08:53.687Z,1002.67
2023-04-20T11:09:53.647Z,1002.69
2023-04-20T11:10:53.877Z,1002.71
2023-04-20T11:11:53.630Z,1002.71
2023-04-20T11:12:53.596Z,1002.69
2023-04-20T11:13:53.626Z,1002.67
2023-04-20T11:14:53.596Z,1002.64
2023-04-20T11:15:53.652Z,1002.67
2023-04-20T11:16:53.763Z,1002.61
2023-04-20T11:17:53.616Z,1002.68
2023-04-20T11:18:53.556Z,1002.64
2023-04-20T11:19:53.615Z,1002.68
2023-04-20T11:20:53.516Z,1002.63
2023-04-20T11:21:53.531Z,1002.57
2023-04-20T11:22:54.899Z,1002.58
2023-04-20T11:23:53.491Z,1002.59
2023-04-20T11:24:53.483Z,1002.57
2023-04-20T11:25:53.590Z,1002.57
2023-04-20T11:26:53.465Z,1002.52
2023-04-20T11:27:53.492Z,1002.56
2023-04-20T11:28:55.553Z,1002.55
2023-04-20T11:29:53.443Z,1002.54
2023-04-20T11:30:53.410Z,1002.55
2023-04-20T11:31:53.458Z,1002.51
2023-04-20T11:32:53.510Z,1002.48
2023-04-20T11:33:53.483Z,1002.46
2023-04-20T11:35:03.372Z,1002.44
2023-04-20T11:35:53.371Z,1002.43
2023-04-20T11:36:53.343Z,1002.37
2023-04-20T11:37:53.344Z,1002.39
2023-04-20T11:38:53.334Z,1002.37
2023-04-20T11:39:53.379Z,1002.37
2023-04-20T11:40:53.309Z,1002.32
2023-04-20T11:41:53.372Z,1002.27
2023-04-20T11:42:53.279Z,1002.30
2023-04-20T11:43:53.290Z,1002.26
2023-04-20T11:44:53.273Z,1002.27
2023-04-20T11:45:53.308Z,1002.28
2023-04-20T11:46:53.251Z,1002.25
2023-04-20T11:47:53.275Z,1002.19
2023-04-20T11:48:53.218Z,1002.23
2023-04-20T11:49:53.253Z,1002.22
2023-04-20T11:50:53.244Z,1002.21
2023-04-20T11:51:53.226Z,1002.21
2023-04-20T11:52:53.175Z,1002.20
2023-04-20T11:53:53.180Z,1002.18
2023-04-20T11:54:53.145Z,1002.20
2023-04-20T11:55:53.153Z,1002.20
2023-04-20T11:56:53.128Z,1002.20
2023-04-20T11:57:53.173Z,1002.15
2023-04-20T11:58:53.099Z,1002.17
2023-04-20T11:59:53.108Z,1002.19
2023-04-20T12:00:53.118Z,1002.13
2023-04-20T12:01:53.229Z,1002.17
2023-04-20T12:02:53.254Z,1002.10
2023-04-20T12:03:53.222Z,1002.12
2023-04-20T12:04:53.203Z,1002.18
2023-04-20T12:05:53.238Z,1002.16
2023-04-20T12:06:53.018Z,1002.14
2023-04-20T12:07:53.036Z,1002.13
2023-04-20T12:08:53.001Z,1002.12
2023-04-20T12:09:53.053Z,1002.11
2023-04-20T12:10:52.961Z,1002.10
2023-04-20T12:11:52.987Z,1002.12
2023-04-20T12:12:52.987Z,1002.09
2023-04-20T12:13:52.951Z,1002.11
2023-04-20T12:14:52.931Z,1002.07
2023-04-20T12:15:52.992Z,1002.08
2023-04-20T12:16:52.925Z,1002.08
2023-04-20T12:17:53.022Z,1002.04
2023-04-20T12:18:52.892Z,1002.06
2023-04-20T12:19:52.923Z,1002.07
2023-04-20T12:20:52.873Z,1002.03
2023-04-20T12:21:52.892Z,1002.00
2023-04-20T12:22:52.861Z,1001.96
2023-04-20T12:23:52.879Z,1001.95
2023-04-20T12:24:52.827Z,1001.95
2023-04-20T12:25:52.867Z,1001.93
2023-04-20T12:26:52.808Z,1001.94
2023-04-20T12:27:52.827Z,1001.93
2023-04-20T12:28:52.785Z,1001.94
2023-04-20T12:29:52.792Z,1001.91
2023-04-20T12:30:52.811Z,1001.94
2023-04-20T12:31:52.806Z,1001.93
2023-04-20T12:32:52.787Z,1001.88
2023-04-20T12:33:52.848Z,1001.87
2023-04-20T12:34:52.718Z,1001.87
2023-04-20T12:35:52.727Z,1001.83
2023-04-20T12:36:52.680Z,1001.84
2023-04-20T12:37:52.744Z,1001.86
2023-04-20T12:38:52.689Z,1001.84
2023-04-20T12:39:52.755Z,1001.87
2023-04-20T12:40:52.675Z,1001.89
2023-04-20T12:41:52.702Z,1001.88
2023-04-20T12:42:52.633Z,1001.88
2023-04-20T12:43:52.654Z,1001.87
2023-04-20T12:44:52.653Z,1001.86
2023-04-20T12:45:52.629Z,1001.86
2023-04-20T12:46:52.730Z,1001.80
2023-04-20T12:47:55.227Z,1001.82
2023-04-20T12:48:52.569Z,1001.79
2023-04-20T12:49:52.604Z,1001.80
2023-04-20T12:50:52.538Z,1001.81
2023-04-20T12:51:52.533Z,1001.81
2023-04-20T12:52:52.514Z,1001.83
2023-04-20T12:53:52.566Z,1001.82
2023-04-20T12:54:52.497Z,1001.77
2023-04-20T12:56:00.388Z,1001.76
2023-04-20T12:56:52.472Z,1001.86
2023-04-20T12:57:52.499Z,1001.85
2023-04-20T12:58:52.493Z,1001.85
2023-04-20T12:59:52.478Z,1001.88
2023-04-20T13:00:52.455Z,1001.92
2023-04-20T13:01:52.532Z,1001.92
2023-04-20T13:02:52.598Z,1001.91
2023-04-20T13:03:52.753Z,1001.91
2023-04-20T13:04:52.405Z,1001.89
2023-04-20T13:05:52.406Z,1001.90
2023-04-20T13:06:52.359Z,1001.87
2023-04-20T13:07:52.405Z,1001.89
2023-04-20T13:08:52.356Z,1001.92
2023-04-20T13:09:52.363Z,1001.90
2023-04-20T13:10:52.333Z,1001.88
2023-04-20T13:11:52.328Z,1001.88
2023-04-20T13:12:52.292Z,1001.89
2023-04-20T13:13:52.326Z,1001.93
2023-04-20T13:14:52.297Z,1001.88
2023-04-20T13:15:52.286Z,1001.88
2023-04-20T13:16:54.964Z,1001.93
2023-04-20T13:17:52.419Z,1001.97
2023-04-20T13:18:52.241Z,1001.99
2023-04-20T13:19:52.268Z,1001.99
2023-04-20T13:20:52.262Z,1001.93
2023-04-20T13:21:52.237Z,1001.95
2023-04-20T13:22:57.813Z,1001.90
2023-04-20T13:23:53.969Z,1001.93
2023-04-20T13:24:52.194Z,1001.94
2023-04-20T13:25:52.192Z,1001.96
2023-04-20T13:26:52.158Z,1001.96
2023-04-20T13:27:52.176Z,1001.95
2023-04-20T13:28:52.107Z,1001.92
2023-04-20T13:29:52.135Z,1001.96
2023-04-20T13:30:52.133Z,1001.96
2023-04-20T13:31:52.182Z,1002.01
2023-04-20T13:32:52.148Z,1002.00
2023-04-20T13:33:52.093Z,1002.01
2023-04-20T13:34:52.065Z,1002.04
2023-04-20T13:35:52.081Z,1002.04
2023-04-20T13:36:52.072Z,1002.02
2023-04-20T13:37:52.051Z,1002.05
2023-04-20T13:38:52.041Z,1002.08
2023-04-20T13:39:52.038Z,1002.07
2023-04-20T13:40:52.022Z,1002.04
2023-04-20T13:41:52.022Z,1002.06
2023-04-20T13:42:51.991Z,1002.07
2023-04-20T13:43:51.979Z,1002.05
2023-04-20T13:44:51.943Z,1002.07
2023-04-20T13:45:52.009Z,1002.07
2023-04-20T13:46:51.929Z,1002.07
2023-04-20T13:47:52.080Z,1002.07
2023-04-20T13:48:51.909Z,1002.03
2023-04-20T13:49:51.919Z,1002.04
2023-04-20T13:50:52.005Z,1002.05
2023-04-20T13:51:51.925Z,1002.03
2023-04-20T13:52:51.857Z,1002.05
2023-04-20T13:53:51.877Z,1002.04
2023-04-20T13:54:51.837Z,1002.06
2023-04-20T13:55:51.845Z,1002.14
2023-04-20T13:56:51.823Z,1002.11
2023-04-20T13:57:51.863Z,1002.13
2023-04-20T13:58:51.794Z,1002.25
2023-04-20T13:59:51.823Z,1002.21
2023-04-20T14:00:51.829Z,1002.20
2023-04-20T14:01:51.808Z,1002.16
2023-04-20T14:02:51.878Z,1002.21
2023-04-20T14:03:51.877Z,1002.19
2023-04-20T14:04:51.786Z,1002.15
2023-04-20T14:05:51.979Z,1002.13
2023-04-20T14:06:51.717Z,1002.10
2023-04-20T14:07:51.759Z,1002.09
2023-04-20T14:08:51.718Z,1002.08
2023-04-20T14:09:51.731Z,1002.08
2023-04-20T14:10:51.676Z,1002.07
2023-04-20T14:11:54.828Z,1002.05
2023-04-20T14:12:51.660Z,1002.09
2023-04-20T14:13:51.657Z,1002.09
2023-04-20T14:14:51.628Z,1002.15
2023-04-20T14:15:51.710Z,1002.11
2023-04-20T14:16:51.619Z,1002.10
2023-04-20T14:17:52.632Z,1002.08
2023-04-20T14:18:51.572Z,1002.04
2023-04-20T14:19:51.636Z,1002.02
2023-04-20T14:20:51.567Z,1001.99
2023-04-20T14:21:51.577Z,1001.98
2023-04-20T14:22:51.552Z,1001.98
2023-04-20T14:23:51.548Z,1001.99
2023-04-20T14:24:51.574Z,1001.97
2023-04-20T14:25:51.538Z,1001.98
2023-04-20T14:26:51.502Z,1001.96
2023-04-20T14:27:51.504Z,1001.99
2023-04-20T14:28:51.492Z,1001.94
2023-04-20T14:29:51.492Z,1001.94
2023-04-20T14:30:51.477Z,1001.93
2023-04-20T14:31:51.610Z,1001.93
2023-04-20T14:32:51.582Z,1001.91
2023-04-20T14:33:51.485Z,1001.89
2023-04-20T14:34:51.435Z,1001.88
2023-04-20T14:35:51.421Z,1001.85
2023-04-20T14:36:51.401Z,1001.85
2023-04-20T14:37:51.392Z,1001.86
2023-04-20T14:38:51.368Z,1001.86
2023-04-20T14:39:51.377Z,1001.86
2023-04-20T14:40:51.548Z,1001.85
2023-04-20T14:41:51.358Z,1001.84
2023-04-20T14:42:51.427Z,1001.83
2023-04-20T14:43:51.366Z,1001.84
2023-04-20T14:44:51.310Z,1001.83
2023-04-20T14:45:51.424Z,1001.80
2023-04-20T14:46:51.638Z,1001.81
2023-04-20T14:47:51.477Z,1001.84
2023-04-20T14:48:51.395Z,1001.85
2023-04-20T14:49:51.377Z,1001.84
2023-04-20T14:50:51.258Z,1001.85
2023-04-20T14:51:51.235Z,1001.85
2023-04-20T14:52:51.226Z,1001.85
2023-04-20T14:53:51.226Z,1001.84
2023-04-20T14:54:51.187Z,1001.79
2023-04-20T14:55:51.194Z,1001.79
2023-04-20T14:56:51.178Z,1001.80
2023-04-20T14:57:51.158Z,1001.85
2023-04-20T14:58:51.172Z,1001.88
2023-04-20T14:59:51.158Z,1001.86
2023-04-20T15:00:51.113Z,1001.87
2023-04-20T15:02:01.722Z,1001.91
2023-04-20T15:02:51.344Z,1001.92
2023-04-20T15:03:51.521Z,1001.93
2023-04-20T15:04:51.294Z,1001.93
2023-04-20T15:05:51.245Z,1001.98
2023-04-20T15:06:51.055Z,1001.98
2023-04-20T15:07:51.055Z,1001.98
2023-04-20T15:08:51.060Z,1001.96
2023-04-20T15:09:51.026Z,1001.98
2023-04-20T15:10:51.079Z,1002.05
2023-04-20T15:11:51.033Z,1002.00
2023-04-20T15:12:51.003Z,1002.01
2023-04-20T15:13:50.984Z,1002.02
2023-04-20T15:14:50.980Z,1002.00
2023-04-20T15:15:52.637Z,1002.00
2023-04-20T15:16:51.063Z,1001.99
2023-04-20T15:17:51.854Z,1002.01
2023-04-20T15:18:50.942Z,1002.00
2023-04-20T15:19:50.922Z,1002.00
2023-04-20T15:20:50.919Z,1001.95
2023-04-20T15:21:50.928Z,1001.94
2023-04-20T15:22:50.921Z,1001.90
2023-04-20T15:23:50.870Z,1001.95
2023-04-20T15:24:50.884Z,1001.91
2023-04-20T15:25:50.880Z,1001.92
2023-04-20T15:26:50.884Z,1001.91
2023-04-20T15:27:50.854Z,1001.89
2023-04-20T15:28:50.828Z,1001.87
2023-04-20T15:29:50.796Z,1001.87
2023-04-20T15:30:50.811Z,1001.88
2023-04-20T15:31:50.845Z,1001.87
2023-04-20T15:32:50.888Z,1001.95
2023-04-20T15:33:50.791Z,1001.96
2023-04-20T15:34:50.759Z,1001.94
2023-04-20T15:35:50.734Z,1001.97
2023-04-20T15:36:50.801Z,1001.97
2023-04-20T15:37:50.734Z,1001.97
2023-04-20T15:38:50.739Z,1001.98
2023-04-20T15:39:50.704Z,1001.94
2023-04-20T15:40:50.714Z,1001.94
2023-04-20T15:41:50.682Z,1001.94
2023-04-20T15:42:50.667Z,1001.90
2023-04-20T15:43:50.668Z,1001.91
2023-04-20T15:44:50.665Z,1001.96
2023-04-20T15:45:50.676Z,1001.92
2023-04-20T15:46:50.652Z,1001.90
2023-04-20T15:47:50.613Z,1001.92
2023-04-20T15:48:50.617Z,1001.91
2023-04-20T15:49:50.689Z,1001.97
2023-04-20T15:50:50.624Z,1001.96
2023-04-20T15:51:50.568Z,1001.94
2023-04-20T15:52:50.687Z,1001.99
2023-04-20T15:53:50.784Z,1001.95
2023-04-20T15:54:50.573Z,1001.93
2023-04-20T15:55:50.524Z,1001.94
2023-04-20T15:56:50.533Z,1001.97
2023-04-20T15:57:50.563Z,1001.97
2023-04-20T15:58:50.665Z,1001.99
2023-04-20T15:59:50.475Z,1002.00
2023-04-20T16:00:50.489Z,1002.02
2023-04-20T16:01:50.601Z,1002.04
2023-04-20T16:02:50.614Z,1002.04
2023-04-20T16:03:50.534Z,1002.05
2023-04-20T16:04:50.494Z,1002.05
2023-04-20T16:05:50.412Z,1002.04
2023-04-20T16:06:50.438Z,1002.05
2023-04-20T16:07:50.402Z,1002.04
2023-04-20T16:08:50.412Z,1002.09
2023-04-20T16:09:50.373Z,1002.15
2023-04-20T16:10:50.372Z,1002.17
2023-04-20T16:11:50.353Z,1002.20
2023-04-20T16:12:50.345Z,1002.21
2023-04-20T16:13:50.324Z,1002.20
2023-04-20T16:14:52.386Z,1002.20
2023-04-20T16:15:50.338Z,1002.21
2023-04-20T16:16:50.307Z,1002.22
2023-04-20T16:17:50.376Z,1002.24
2023-04-20T16:18:50.304Z,1002.27
2023-04-20T16:19:50.267Z,1002.30
2023-04-20T16:20:50.431Z,1002.30
2023-04-20T16:21:50.284Z,1002.27
2023-04-20T16:22:50.242Z,1002.30
2023-04-20T16:23:50.239Z,1002.29
2023-04-20T16:24:50.234Z,1002.29
2023-04-20T16:25:50.216Z,1002.31
2023-04-20T16:26:50.222Z,1002.31
2023-04-20T16:27:50.164Z,1002.32
2023-04-20T16:28:50.179Z,1002.35
2023-04-20T16:29:50.181Z,1002.34
2023-04-20T16:30:50.186Z,1002.35
2023-04-20T16:31:50.287Z,1002.34
2023-04-20T16:32:50.246Z,1002.36
2023-04-20T16:33:50.123Z,1002.35
2023-04-20T16:34:50.116Z,1002.34
2023-04-20T16:35:50.095Z,1002.35